Bernal, New Mexico
Current Conditions -  °F | °C
As of 12:53 PM on Tuesday 21 Oct 2014 (Local Time) from KLVS Reporting Station
Broken Clouds Broken Clouds  
Wind Chill: 58°   Ceiling: 8000
Heat Index: 58°   Visibility: 10mi
Dew Point: 44°   Wind: 14mph
Humidity: 60%   Direction: 190°S
Pressure: 30.2"   Gusts: NA
Location:  35.3928°N, 105.316°W
Report Text: KLVS 211853Z AUTO 19012KT 10SM BKN080 14/07 A3020 RMK AO2 SLP157 T01440067
Loading
Personal Weather Stations






























Interactive Weather Map
Tropical Storm Tracking
New forecast layout! Learn more

10-Day Weather Forecast

Advertisements
Track Severe Weather on mobile